Time;durP1;ratioP1;P1;durP2;ratioP2;P2;SDS_P1;SDS_P2;PMS_P1;PMS_P2;Temp;Humidity;BMP_temperature;BMP_pressure;BME280_temperature;BME280_humidity;BME280_pressure;Samples;Min_cycle;Max_cycle;Signal;HPM_P1;HPM_P2
2022/06/06 00:01:56;;;;;;;0.70;0.60;;;;;;;;;;5075317;28;20463;-78
2022/06/06 00:04:24;;;;;;;0.70;0.60;;;;;;;;;;5089221;28;20440;-75
2022/06/06 00:06:52;;;;;;;0.80;0.80;;;;;;;;;;5095404;28;20466;-78
2022/06/06 00:09:19;;;;;;;0.70;0.70;;;;;;;;;;5112223;28;20431;-77
2022/06/06 00:11:46;;;;;;;0.70;0.60;;;;;;;;;;5112195;28;20912;-78
2022/06/06 00:14:14;;;;;;;0.70;0.70;;;;;;;;;;5113148;28;21017;-78
2022/06/06 00:16:42;;;;;;;0.70;0.60;;;;;;;;;;5107740;28;20516;-75
2022/06/06 00:19:10;;;;;;;0.70;0.70;;;;;;;;;;5098353;28;20817;-78
2022/06/06 00:21:37;;;;;;;0.70;0.67;;;;;;;;;;5106935;28;20609;-78
2022/06/06 00:24:04;;;;;;;0.70;0.70;;;;;;;;;;5075905;28;20849;-78
2022/06/06 00:26:32;;;;;;;0.80;0.70;;;;;;;;;;5092024;28;20493;-79
2022/06/06 00:28:59;;;;;;;0.70;0.70;;;;;;;;;;5075518;28;20456;-77
2022/06/06 00:37:01;;;;;;;0.70;0.60;;;;;;;;;;5095218;28;20469;-77
2022/06/06 00:39:28;;;;;;;0.70;0.70;;;;;;;;;;5078790;28;20451;-78
2022/06/06 00:41:56;;;;;;;0.70;0.70;;;;;;;;;;5115830;28;20467;-78
2022/06/06 00:44:24;;;;;;;0.70;0.70;;;;;;;;;;5114671;28;20448;-77
2022/06/06 00:46:52;;;;;;;0.70;0.60;;;;;;;;;;5116526;28;20418;-77
2022/06/06 00:49:24;;;;;;;0.70;0.60;;;;;;;;;;5115393;28;20447;-78
2022/06/06 00:52:01;;;;;;;1.37;1.27;;;;;;;;;;5115429;28;20458;-77
2022/06/06 00:54:30;;;;;;;0.70;0.60;;;;;;;;;;5113717;28;20883;-78
2022/06/06 00:56:59;;;;;;;0.70;0.70;;;;;;;;;;5116271;28;20457;-77
2022/06/06 00:59:30;;;;;;;0.70;0.63;;;;;;;;;;5115256;28;20440;-78
2022/06/06 01:01:57;;;;;;;0.70;0.60;;;;;;;;;;5097008;28;20554;-77
2022/06/06 01:04:28;;;;;;;0.70;0.60;;;;;;;;;;5078576;28;20798;-77
2022/06/06 01:06:56;;;;;;;0.70;0.70;;;;;;;;;;5095198;28;20442;-78
2022/06/06 01:09:26;;;;;;;0.80;0.80;;;;;;;;;;5096395;28;20439;-78
2022/06/06 01:11:59;;;;;;;0.70;0.70;;;;;;;;;;5079194;28;20441;-75
2022/06/06 01:14:31;;;;;;;0.70;0.60;;;;;;;;;;5080007;28;20438;-77
2022/06/06 01:17:01;;;;;;;0.80;0.70;;;;;;;;;;5115658;28;20452;-76
2022/06/06 01:19:46;;;;;;;0.70;0.60;;;;;;;;;;5111454;28;20914;-75
2022/06/06 01:22:27;;;;;;;0.70;0.60;;;;;;;;;;5114852;28;20501;-75
2022/06/06 01:25:03;;;;;;;0.70;0.70;;;;;;;;;;5107645;28;20488;-75
2022/06/06 01:27:46;;;;;;;0.77;0.70;;;;;;;;;;5113848;28;20432;-76
2022/06/06 01:30:19;;;;;;;0.70;0.70;;;;;;;;;;5115165;28;20495;-77
2022/06/06 01:32:53;;;;;;;0.70;0.60;;;;;;;;;;5098907;28;20442;-76
2022/06/06 01:35:23;;;;;;;0.70;0.60;;;;;;;;;;5098291;28;20486;-76
2022/06/06 01:37:58;;;;;;;0.70;0.70;;;;;;;;;;5099045;28;20432;-76
2022/06/06 01:40:31;;;;;;;0.70;0.60;;;;;;;;;;5102074;28;21099;-77
2022/06/06 01:43:10;;;;;;;0.80;0.80;;;;;;;;;;5098872;28;20489;-77
2022/06/06 01:45:42;;;;;;;0.70;0.70;;;;;;;;;;5077841;28;20540;-77
2022/06/06 01:48:14;;;;;;;0.70;0.70;;;;;;;;;;5107547;28;20439;-77
2022/06/06 01:50:43;;;;;;;0.70;0.70;;;;;;;;;;5114785;28;20936;-75
2022/06/06 01:53:13;;;;;;;0.70;0.60;;;;;;;;;;5114257;28;20487;-77
2022/06/06 01:55:42;;;;;;;0.70;0.60;;;;;;;;;;5098088;28;20894;-77
2022/06/06 01:58:18;;;;;;;0.70;0.60;;;;;;;;;;5113100;28;20439;-77
2022/06/06 02:00:51;;;;;;;0.70;0.60;;;;;;;;;;5111163;28;20862;-77
2022/06/06 02:03:20;;;;;;;0.70;0.70;;;;;;;;;;5115487;28;20436;-75
2022/06/06 02:05:47;;;;;;;0.70;0.63;;;;;;;;;;5114906;28;20457;-77
2022/06/06 02:08:14;;;;;;;0.70;0.60;;;;;;;;;;5114257;28;20434;-78
2022/06/06 02:10:41;;;;;;;0.70;0.60;;;;;;;;;;5115264;28;20779;-78
2022/06/06 02:13:08;;;;;;;0.70;0.70;;;;;;;;;;5116002;28;20416;-77
2022/06/06 02:15:36;;;;;;;0.70;0.70;;;;;;;;;;5113582;28;20436;-78
2022/06/06 02:18:04;;;;;;;0.70;0.60;;;;;;;;;;5113856;28;20438;-78
2022/06/06 02:20:31;;;;;;;0.70;0.60;;;;;;;;;;5133394;27;20429;-78
2022/06/06 02:22:58;;;;;;;0.70;0.70;;;;;;;;;;5134986;27;20864;-76
2022/06/06 02:25:26;;;;;;;0.70;0.60;;;;;;;;;;5135124;27;20474;-78
2022/06/06 02:27:54;;;;;;;0.70;0.60;;;;;;;;;;5120327;27;20819;-77
2022/06/06 02:30:23;;;;;;;0.70;0.63;;;;;;;;;;5093880;28;20442;-77
2022/06/06 02:32:50;;;;;;;0.70;0.70;;;;;;;;;;5094570;28;20541;-77
2022/06/06 02:35:20;;;;;;;0.80;0.70;;;;;;;;;;5076839;28;20435;-76
2022/06/06 02:37:47;;;;;;;0.70;0.60;;;;;;;;;;5093684;28;20991;-76
2022/06/06 02:40:16;;;;;;;0.70;0.60;;;;;;;;;;5093274;28;20528;-78
2022/06/06 02:42:43;;;;;;;0.70;0.70;;;;;;;;;;5093952;28;20463;-77
2022/06/06 02:45:10;;;;;;;0.70;0.70;;;;;;;;;;5093674;28;20480;-77
2022/06/06 02:47:37;;;;;;;0.70;0.63;;;;;;;;;;5094562;28;20969;-77
2022/06/06 02:50:06;;;;;;;0.73;0.70;;;;;;;;;;5121546;27;20451;-77
2022/06/06 02:52:35;;;;;;;0.80;0.70;;;;;;;;;;5113671;28;20442;-77
2022/06/06 02:55:01;;;;;;;0.70;0.60;;;;;;;;;;5113878;28;20417;-77
2022/06/06 02:57:29;;;;;;;0.70;0.70;;;;;;;;;;5092777;28;20451;-77
2022/06/06 02:59:59;;;;;;;0.90;0.90;;;;;;;;;;5113945;28;20425;-77
2022/06/06 03:02:27;;;;;;;0.70;0.70;;;;;;;;;;5113488;28;20504;-77
2022/06/06 03:04:56;;;;;;;0.70;0.70;;;;;;;;;;5108378;28;20468;-77
2022/06/06 03:07:26;;;;;;;0.80;0.63;;;;;;;;;;5113503;28;20472;-78
2022/06/06 03:09:59;;;;;;;0.70;0.60;;;;;;;;;;5096628;28;20435;-75
2022/06/06 03:12:34;;;;;;;0.70;0.60;;;;;;;;;;5096345;28;20441;-77
2022/06/06 03:15:06;;;;;;;0.70;0.60;;;;;;;;;;5093812;28;20437;-77
2022/06/06 03:23:43;;;;;;;0.70;0.60;;;;;;;;;;5091109;28;20462;-77
2022/06/06 03:26:16;;;;;;;0.70;0.70;;;;;;;;;;5113150;28;20443;-76
2022/06/06 03:28:50;;;;;;;0.73;0.70;;;;;;;;;;5096219;28;20441;-75
2022/06/06 03:31:23;;;;;;;0.77;0.70;;;;;;;;;;5110227;28;20434;-78
2022/06/06 03:33:56;;;;;;;0.70;0.70;;;;;;;;;;5112379;28;20445;-75
2022/06/06 03:36:28;;;;;;;0.73;0.63;;;;;;;;;;5102700;28;20509;-75
2022/06/06 03:38:59;;;;;;;0.80;0.80;;;;;;;;;;5105503;28;20438;-76
2022/06/06 03:41:30;;;;;;;0.70;0.67;;;;;;;;;;5111193;28;21051;-76
2022/06/06 03:44:02;;;;;;;0.70;0.70;;;;;;;;;;5113150;28;20909;-76
2022/06/06 03:46:33;;;;;;;0.80;0.80;;;;;;;;;;5087989;28;21010;-75
2022/06/06 03:49:11;;;;;;;0.80;0.70;;;;;;;;;;5116642;28;20444;-76
2022/06/06 03:51:44;;;;;;;0.80;0.70;;;;;;;;;;5134650;27;20428;-77
2022/06/06 03:54:16;;;;;;;0.80;0.70;;;;;;;;;;5120403;28;20916;-76
2022/06/06 03:56:52;;;;;;;0.70;0.70;;;;;;;;;;5113568;28;20470;-75
2022/06/06 03:59:19;;;;;;;0.70;0.60;;;;;;;;;;5112467;28;20835;-75
2022/06/06 04:01:47;;;;;;;0.70;0.70;;;;;;;;;;5111071;28;20470;-76
2022/06/06 04:04:15;;;;;;;0.70;0.60;;;;;;;;;;5113853;28;20523;-76
2022/06/06 04:06:43;;;;;;;0.70;0.70;;;;;;;;;;5111106;28;20459;-78
2022/06/06 04:09:11;;;;;;;0.70;0.70;;;;;;;;;;5097319;28;21003;-77
2022/06/06 04:11:43;;;;;;;0.70;0.67;;;;;;;;;;5096491;28;20470;-75
2022/06/06 04:14:15;;;;;;;0.80;0.80;;;;;;;;;;5097270;28;20512;-76
2022/06/06 04:16:50;;;;;;;0.70;0.70;;;;;;;;;;5082215;28;20483;-77
2022/06/06 04:19:23;;;;;;;0.70;0.60;;;;;;;;;;5107078;28;20476;-76
2022/06/06 04:21:57;;;;;;;0.80;0.70;;;;;;;;;;5104194;28;20551;-77
2022/06/06 04:24:34;;;;;;;0.70;0.63;;;;;;;;;;5116491;28;20413;-78
2022/06/06 04:27:04;;;;;;;0.70;0.60;;;;;;;;;;5116433;28;21017;-77
2022/06/06 04:29:37;;;;;;;0.70;0.60;;;;;;;;;;5117529;28;20829;-77
2022/06/06 04:32:09;;;;;;;0.80;0.70;;;;;;;;;;5114878;28;20468;-75
2022/06/06 04:34:43;;;;;;;0.70;0.60;;;;;;;;;;5096615;28;20544;-75
2022/06/06 04:37:16;;;;;;;0.70;0.60;;;;;;;;;;5096280;28;20490;-75
2022/06/06 04:39:46;;;;;;;0.70;0.70;;;;;;;;;;5094936;28;20446;-75
2022/06/06 04:42:16;;;;;;;0.70;0.70;;;;;;;;;;5095465;28;20539;-76
2022/06/06 04:44:50;;;;;;;0.70;0.60;;;;;;;;;;5095616;28;20538;-75
2022/06/06 04:47:20;;;;;;;0.70;0.70;;;;;;;;;;5101504;28;20426;-75
2022/06/06 04:49:47;;;;;;;0.77;0.67;;;;;;;;;;5115513;27;20504;-74
2022/06/06 04:52:15;;;;;;;0.70;0.70;;;;;;;;;;5098530;28;20468;-75
2022/06/06 04:54:44;;;;;;;0.70;0.60;;;;;;;;;;5116378;28;20927;-75
2022/06/06 04:57:12;;;;;;;0.70;0.60;;;;;;;;;;5116921;28;20438;-75
2022/06/06 04:59:40;;;;;;;0.70;0.70;;;;;;;;;;5116773;28;20786;-75
2022/06/06 05:02:09;;;;;;;0.70;0.70;;;;;;;;;;5100128;28;20551;-75
2022/06/06 05:04:37;;;;;;;0.70;0.70;;;;;;;;;;5097030;28;20462;-77
2022/06/06 05:07:11;;;;;;;0.70;0.70;;;;;;;;;;5099950;28;20460;-76
2022/06/06 05:09:50;;;;;;;0.70;0.70;;;;;;;;;;5099920;28;20480;-76
2022/06/06 05:12:22;;;;;;;0.70;0.70;;;;;;;;;;5095586;28;20445;-76
2022/06/06 05:14:59;;;;;;;0.70;0.63;;;;;;;;;;5105432;28;20433;-76
2022/06/06 05:17:47;;;;;;;0.73;0.70;;;;;;;;;;5115971;28;20415;-76
2022/06/06 05:20:24;;;;;;;0.70;0.60;;;;;;;;;;5114255;27;20713;-76
2022/06/06 05:23:00;;;;;;;0.70;0.60;;;;;;;;;;5115568;28;20494;-77
2022/06/06 05:25:38;;;;;;;0.70;0.70;;;;;;;;;;5106399;27;20809;-77
2022/06/06 05:28:20;;;;;;;0.70;0.60;;;;;;;;;;5114242;28;20423;-77
2022/06/06 05:30:52;;;;;;;0.70;0.60;;;;;;;;;;5102541;27;20446;-77
2022/06/06 05:33:22;;;;;;;0.80;0.80;;;;;;;;;;5098280;28;20437;-76
2022/06/06 05:35:59;;;;;;;0.70;0.70;;;;;;;;;;5115570;28;20450;-76
2022/06/06 05:38:39;;;;;;;0.80;0.80;;;;;;;;;;5113587;28;20454;-76
2022/06/06 05:41:11;;;;;;;0.80;0.70;;;;;;;;;;5110271;28;20457;-77
2022/06/06 05:43:42;;;;;;;0.70;0.70;;;;;;;;;;5094035;28;20455;-77
2022/06/06 05:46:20;;;;;;;0.70;0.60;;;;;;;;;;5094455;28;20430;-78
2022/06/06 05:48:56;;;;;;;0.70;0.70;;;;;;;;;;5111532;28;20460;-78
2022/06/06 05:51:29;;;;;;;0.70;0.60;;;;;;;;;;5114719;28;20849;-77
2022/06/06 05:54:09;;;;;;;0.70;0.70;;;;;;;;;;5113267;28;20835;-77
2022/06/06 05:56:56;;;;;;;0.80;0.77;;;;;;;;;;5094781;28;20470;-76
2022/06/06 05:59:34;;;;;;;0.70;0.70;;;;;;;;;;5094120;28;20465;-74
2022/06/06 06:02:09;;;;;;;0.70;0.60;;;;;;;;;;5087827;28;21035;-75
2022/06/06 06:04:59;;;;;;;0.70;0.70;;;;;;;;;;5110952;28;20414;-73
2022/06/06 06:07:32;;;;;;;0.70;0.70;;;;;;;;;;5100601;28;20500;-75
2022/06/06 06:10:09;;;;;;;0.80;0.70;;;;;;;;;;5095396;28;20912;-76
2022/06/06 06:12:51;;;;;;;0.70;0.70;;;;;;;;;;5093837;28;20455;-76
2022/06/06 06:15:24;;;;;;;0.70;0.60;;;;;;;;;;5097573;28;20421;-75
2022/06/06 06:17:52;;;;;;;0.70;0.60;;;;;;;;;;5112280;28;20996;-78
2022/06/06 06:20:21;;;;;;;0.70;0.60;;;;;;;;;;5113406;28;20534;-79
2022/06/06 06:22:55;;;;;;;0.80;0.70;;;;;;;;;;5096034;28;20881;-80
2022/06/06 06:25:23;;;;;;;0.70;0.60;;;;;;;;;;5076920;28;20448;-75
2022/06/06 06:27:52;;;;;;;0.70;0.70;;;;;;;;;;5095349;28;20976;-77
2022/06/06 06:30:19;;;;;;;0.70;0.70;;;;;;;;;;5093873;28;20530;-76
2022/06/06 06:32:53;;;;;;;0.70;0.60;;;;;;;;;;5094243;28;20453;-76
2022/06/06 06:35:26;;;;;;;0.70;0.70;;;;;;;;;;5093365;28;20453;-76
2022/06/06 06:38:02;;;;;;;0.77;0.70;;;;;;;;;;5093744;28;20414;-77
2022/06/06 06:40:40;;;;;;;0.80;0.80;;;;;;;;;;5093020;28;20409;-76
2022/06/06 06:43:10;;;;;;;0.70;0.70;;;;;;;;;;5097141;28;20472;-75
2022/06/06 06:45:40;;;;;;;0.80;0.80;;;;;;;;;;5101756;28;20752;-75
2022/06/06 06:48:10;;;;;;;0.70;0.60;;;;;;;;;;5110405;28;20459;-76
2022/06/06 06:50:41;;;;;;;0.80;0.80;;;;;;;;;;5133341;27;20458;-76
2022/06/06 06:53:16;;;;;;;0.80;0.70;;;;;;;;;;5136709;27;20430;-76
2022/06/06 06:55:48;;;;;;;0.70;0.70;;;;;;;;;;5119100;27;20481;-76
2022/06/06 06:58:24;;;;;;;0.70;0.60;;;;;;;;;;5137514;27;20438;-76
2022/06/06 07:00:54;;;;;;;0.80;0.70;;;;;;;;;;5103122;28;20496;-76
2022/06/06 07:09:10;;;;;;;0.80;0.70;;;;;;;;;;5093273;28;20434;-74
2022/06/06 07:11:44;;;;;;;0.70;0.70;;;;;;;;;;5095534;28;20437;-76
2022/06/06 07:14:17;;;;;;;0.80;0.80;;;;;;;;;;5112818;28;20447;-76
2022/06/06 07:16:49;;;;;;;0.80;0.80;;;;;;;;;;5100343;28;20836;-76
2022/06/06 07:19:18;;;;;;;0.73;0.70;;;;;;;;;;5098583;28;20449;-75
2022/06/06 07:21:48;;;;;;;0.70;0.70;;;;;;;;;;5109821;28;20519;-74
2022/06/06 07:24:18;;;;;;;0.80;0.80;;;;;;;;;;5080326;28;20455;-74
2022/06/06 07:26:46;;;;;;;0.73;0.67;;;;;;;;;;5095666;28;20851;-75
2022/06/06 07:29:14;;;;;;;0.77;0.70;;;;;;;;;;5093893;28;20442;-75
2022/06/06 07:31:50;;;;;;;0.70;0.60;;;;;;;;;;5091768;28;20422;-75
2022/06/06 07:34:24;;;;;;;0.77;0.70;;;;;;;;;;5092734;28;20446;-74
2022/06/06 07:37:06;;;;;;;0.77;0.70;;;;;;;;;;5093116;28;20531;-74
2022/06/06 07:39:42;;;;;;;0.73;0.63;;;;;;;;;;5097731;28;20428;-77
2022/06/06 07:42:13;;;;;;;0.80;0.70;;;;;;;;;;5096307;28;20418;-77
2022/06/06 07:44:50;;;;;;;0.80;0.70;;;;;;;;;;5097593;28;20416;-76
2022/06/06 07:47:21;;;;;;;0.70;0.60;;;;;;;;;;5083383;28;20888;-76
2022/06/06 07:49:51;;;;;;;0.80;0.70;;;;;;;;;;5116151;28;20430;-75
2022/06/06 07:52:22;;;;;;;0.70;0.70;;;;;;;;;;5116738;28;20872;-75
2022/06/06 07:54:58;;;;;;;0.70;0.60;;;;;;;;;;5117655;28;20496;-76
2022/06/06 07:57:30;;;;;;;0.70;0.60;;;;;;;;;;5103885;28;20515;-77
2022/06/06 08:00:01;;;;;;;0.70;0.67;;;;;;;;;;5117206;28;20421;-74
2022/06/06 08:02:55;;;;;;;0.70;0.60;;;;;;;;;;5117502;28;20948;-76
2022/06/06 08:05:37;;;;;;;0.70;0.70;;;;;;;;;;5111412;28;20442;-74
2022/06/06 08:08:08;;;;;;;0.80;0.80;;;;;;;;;;5059908;28;20456;-76
2022/06/06 08:10:39;;;;;;;0.80;0.77;;;;;;;;;;5110108;28;20433;-74
2022/06/06 08:13:30;;;;;;;0.73;0.67;;;;;;;;;;5118171;28;20503;-77
2022/06/06 08:16:09;;;;;;;0.80;0.70;;;;;;;;;;5117172;28;20479;-75
2022/06/06 08:18:47;;;;;;;0.80;0.80;;;;;;;;;;5113756;27;20441;-76
2022/06/06 08:21:17;;;;;;;0.70;0.60;;;;;;;;;;5109080;28;20478;-76
2022/06/06 08:23:45;;;;;;;0.70;0.60;;;;;;;;;;5113020;28;20462;-76
2022/06/06 08:26:15;;;;;;;0.70;0.60;;;;;;;;;;5112632;28;21015;-77
2022/06/06 08:28:43;;;;;;;0.73;0.70;;;;;;;;;;5109951;28;20389;-77
2022/06/06 08:31:10;;;;;;;0.80;0.80;;;;;;;;;;5103399;28;20512;-76
2022/06/06 08:33:38;;;;;;;0.77;0.70;;;;;;;;;;5102311;28;20429;-77
2022/06/06 08:36:14;;;;;;;0.80;0.70;;;;;;;;;;5104305;28;20470;-76
2022/06/06 08:38:52;;;;;;;0.70;0.70;;;;;;;;;;5109691;28;20418;-78
2022/06/06 08:41:43;;;;;;;0.80;0.70;;;;;;;;;;5115566;28;20407;-78
2022/06/06 08:44:20;;;;;;;0.73;0.60;;;;;;;;;;5117101;28;20787;-75
2022/06/06 08:47:07;;;;;;;0.70;0.60;;;;;;;;;;5115289;28;20404;-80
2022/06/06 08:52:41;;;;;;;0.73;0.70;;;;;;;;;;5115813;28;20454;-77
2022/06/06 08:55:23;;;;;;;0.80;0.70;;;;;;;;;;5115855;28;20520;-78
2022/06/06 08:58:03;;;;;;;0.70;0.60;;;;;;;;;;5114881;28;20435;-77
2022/06/06 09:00:39;;;;;;;0.70;0.60;;;;;;;;;;5113125;28;20519;-79
2022/06/06 09:03:30;;;;;;;0.73;0.63;;;;;;;;;;5112336;28;20457;-78
2022/06/06 09:06:15;;;;;;;0.80;0.70;;;;;;;;;;5085851;28;20470;-78
2022/06/06 09:08:58;;;;;;;0.70;0.60;;;;;;;;;;5096585;28;20506;-79
2022/06/06 09:11:49;;;;;;;0.70;0.60;;;;;;;;;;5102815;28;20421;-77
2022/06/06 09:14:33;;;;;;;0.70;0.60;;;;;;;;;;5115545;28;20410;-81
2022/06/06 09:17:19;;;;;;;0.73;0.60;;;;;;;;;;5109174;28;20530;-78
2022/06/06 09:20:04;;;;;;;0.70;0.60;;;;;;;;;;5090276;28;20544;-76
2022/06/06 09:22:44;;;;;;;0.77;0.70;;;;;;;;;;5087336;28;20486;-77
2022/06/06 09:25:13;;;;;;;0.80;0.70;;;;;;;;;;5097637;28;20949;-79
2022/06/06 09:28:10;;;;;;;0.70;0.60;;;;;;;;;;5114453;28;20461;-79
2022/06/06 09:31:01;;;;;;;0.80;0.73;;;;;;;;;;5105558;28;20437;-79
2022/06/06 09:33:41;;;;;;;0.77;0.70;;;;;;;;;;5025657;28;20940;-80
2022/06/06 09:36:23;;;;;;;0.70;0.60;;;;;;;;;;5115088;28;20481;-78
2022/06/06 09:38:56;;;;;;;0.70;0.60;;;;;;;;;;5097814;28;20810;-79
2022/06/06 09:41:33;;;;;;;0.70;0.60;;;;;;;;;;5115043;28;20437;-76
2022/06/06 09:44:04;;;;;;;0.80;0.70;;;;;;;;;;5115917;28;20537;-73
2022/06/06 09:46:53;;;;;;;0.77;0.70;;;;;;;;;;5114601;28;20432;-74
2022/06/06 09:49:50;;;;;;;0.80;0.70;;;;;;;;;;5103563;28;20451;-74
2022/06/06 09:52:29;;;;;;;0.70;0.70;;;;;;;;;;5115920;28;20822;-74
2022/06/06 10:01:13;;;;;;;0.70;0.60;;;;;;;;;;5106287;28;20465;-74
2022/06/06 10:04:04;;;;;;;0.80;0.70;;;;;;;;;;5112994;28;20470;-73
2022/06/06 10:06:47;;;;;;;0.70;0.60;;;;;;;;;;5103891;28;20461;-74
2022/06/06 10:09:40;;;;;;;0.70;0.70;;;;;;;;;;5095602;28;20418;-73
2022/06/06 10:12:29;;;;;;;0.70;0.70;;;;;;;;;;5095208;28;20413;-75
2022/06/06 10:15:14;;;;;;;0.77;0.70;;;;;;;;;;5094156;28;20495;-74
2022/06/06 10:17:52;;;;;;;0.70;0.60;;;;;;;;;;5093458;28;20541;-73
2022/06/06 10:20:28;;;;;;;0.70;0.60;;;;;;;;;;5120293;27;20443;-74
2022/06/06 10:23:19;;;;;;;0.80;0.80;;;;;;;;;;5113263;28;20434;-73
2022/06/06 10:25:55;;;;;;;0.73;0.70;;;;;;;;;;5102480;28;20965;-74
2022/06/06 10:28:33;;;;;;;0.80;0.70;;;;;;;;;;5078628;28;20472;-73
2022/06/06 10:31:10;;;;;;;0.70;0.60;;;;;;;;;;5093463;28;20568;-74
2022/06/06 10:33:52;;;;;;;0.80;0.70;;;;;;;;;;5093854;28;20405;-74
2022/06/06 10:36:30;;;;;;;0.80;0.70;;;;;;;;;;5097471;28;20432;-77
2022/06/06 10:39:14;;;;;;;0.70;0.60;;;;;;;;;;5076116;28;20426;-77
2022/06/06 10:41:50;;;;;;;0.70;0.70;;;;;;;;;;5080931;28;20431;-77
2022/06/06 10:44:27;;;;;;;0.70;0.70;;;;;;;;;;5112550;28;20452;-76
2022/06/06 10:47:03;;;;;;;0.77;0.70;;;;;;;;;;5097098;28;20433;-76
2022/06/06 10:49:38;;;;;;;0.73;0.60;;;;;;;;;;5118110;27;20447;-76
2022/06/06 10:52:29;;;;;;;0.70;0.60;;;;;;;;;;5134099;27;20494;-75
2022/06/06 10:55:18;;;;;;;0.80;0.70;;;;;;;;;;5118540;27;20448;-78
2022/06/06 10:58:11;;;;;;;0.80;0.80;;;;;;;;;;5113733;28;20455;-76
2022/06/06 11:00:57;;;;;;;0.70;0.60;;;;;;;;;;5113812;28;20425;-77
2022/06/06 11:03:38;;;;;;;0.70;0.63;;;;;;;;;;5109468;28;20474;-76
2022/06/06 11:06:20;;;;;;;0.70;0.70;;;;;;;;;;5069273;28;20884;-75
2022/06/06 11:09:10;;;;;;;0.70;0.60;;;;;;;;;;5113659;28;20487;-76
2022/06/06 11:11:53;;;;;;;0.70;0.70;;;;;;;;;;5119013;28;20459;-77
2022/06/06 11:14:24;;;;;;;0.80;0.70;;;;;;;;;;5135866;27;20442;-77
2022/06/06 11:17:06;;;;;;;0.80;0.70;;;;;;;;;;5105235;28;20481;-79
2022/06/06 11:19:56;;;;;;;0.70;0.70;;;;;;;;;;5102231;28;20420;-78
2022/06/06 11:22:31;;;;;;;0.80;0.70;;;;;;;;;;5103460;28;20413;-78
2022/06/06 11:25:06;;;;;;;0.80;0.70;;;;;;;;;;5103230;28;20487;-77
2022/06/06 11:27:52;;;;;;;0.80;0.60;;;;;;;;;;5096760;28;20409;-77
2022/06/06 11:30:27;;;;;;;0.70;0.60;;;;;;;;;;5095047;28;20410;-78
2022/06/06 11:33:12;;;;;;;0.80;0.60;;;;;;;;;;5094995;28;20421;-79
2022/06/06 11:35:46;;;;;;;0.70;0.60;;;;;;;;;;5091581;28;20499;-76
2022/06/06 11:38:28;;;;;;;0.70;0.60;;;;;;;;;;5096998;28;20433;-78
2022/06/06 11:41:21;;;;;;;0.70;0.60;;;;;;;;;;5107191;28;20491;-77
2022/06/06 11:44:05;;;;;;;0.70;0.60;;;;;;;;;;5093051;28;20466;-78
2022/06/06 11:47:03;;;;;;;0.70;0.60;;;;;;;;;;5076874;28;20438;-77
2022/06/06 11:50:00;;;;;;;0.70;0.50;;;;;;;;;;5044452;28;20473;-76
2022/06/06 11:52:51;;;;;;;0.70;0.57;;;;;;;;;;5032422;28;20456;-76
2022/06/06 11:55:24;;;;;;;0.70;0.60;;;;;;;;;;5006183;28;20464;-77
2022/06/06 11:58:03;;;;;;;0.70;0.60;;;;;;;;;;5092257;28;20449;-75
2022/06/06 12:00:41;;;;;;;0.70;0.50;;;;;;;;;;5092442;28;20477;-75
2022/06/06 12:03:20;;;;;;;0.70;0.50;;;;;;;;;;5075879;28;20481;-79
2022/06/06 12:06:05;;;;;;;0.70;0.50;;;;;;;;;;5092792;28;20940;-76
2022/06/06 12:08:47;;;;;;;0.70;0.50;;;;;;;;;;5105413;28;20430;-76
2022/06/06 12:11:30;;;;;;;0.70;0.50;;;;;;;;;;5054552;28;20453;-76
2022/06/06 12:14:17;;;;;;;0.70;0.60;;;;;;;;;;5075200;28;20529;-75
2022/06/06 12:16:50;;;;;;;0.70;0.50;;;;;;;;;;5093305;28;20447;-75
2022/06/06 12:19:33;;;;;;;0.70;0.50;;;;;;;;;;5099739;28;20539;-75
2022/06/06 12:22:10;;;;;;;0.70;0.50;;;;;;;;;;5093454;28;20461;-75
2022/06/06 12:24:55;;;;;;;0.70;0.50;;;;;;;;;;5093680;28;20544;-76
2022/06/06 12:27:26;;;;;;;0.70;0.50;;;;;;;;;;5115974;28;20548;-76
2022/06/06 12:30:14;;;;;;;0.70;0.50;;;;;;;;;;5116569;28;20421;-76
2022/06/06 12:32:56;;;;;;;0.70;0.50;;;;;;;;;;5112828;28;20543;-76
2022/06/06 12:35:28;;;;;;;0.70;0.50;;;;;;;;;;5095666;28;20441;-78
2022/06/06 12:37:59;;;;;;;0.70;0.50;;;;;;;;;;5117552;28;20416;-75
2022/06/06 12:40:32;;;;;;;0.70;0.50;;;;;;;;;;5116628;28;20524;-77
2022/06/06 12:43:03;;;;;;;0.70;0.50;;;;;;;;;;5096730;28;20421;-79
2022/06/06 12:45:44;;;;;;;0.70;0.50;;;;;;;;;;5096053;28;20973;-77
2022/06/06 12:48:37;;;;;;;0.70;0.50;;;;;;;;;;5080507;28;20445;-77
2022/06/06 12:51:12;;;;;;;0.70;0.50;;;;;;;;;;5116267;28;20487;-78
2022/06/06 12:53:56;;;;;;;0.70;0.50;;;;;;;;;;5115654;28;20478;-77
2022/06/06 12:56:37;;;;;;;0.70;0.60;;;;;;;;;;5118173;28;20483;-77
2022/06/06 12:59:17;;;;;;;0.70;0.50;;;;;;;;;;5116194;28;20477;-76
2022/06/06 13:01:53;;;;;;;0.70;0.50;;;;;;;;;;5118044;28;20412;-78
2022/06/06 13:04:38;;;;;;;0.70;0.60;;;;;;;;;;5108696;28;20529;-78
2022/06/06 13:07:17;;;;;;;0.70;0.50;;;;;;;;;;5105430;28;20472;-76
2022/06/06 13:09:55;;;;;;;0.70;0.50;;;;;;;;;;5118208;28;20445;-78
2022/06/06 13:12:31;;;;;;;0.70;0.50;;;;;;;;;;5116660;28;20441;-76
2022/06/06 13:15:10;;;;;;;0.70;0.53;;;;;;;;;;5099442;28;20433;-79
2022/06/06 13:17:43;;;;;;;0.70;0.50;;;;;;;;;;5115835;28;20779;-83
2022/06/06 13:20:20;;;;;;;0.70;0.50;;;;;;;;;;5107359;28;20450;-80
2022/06/06 13:23:01;;;;;;;0.70;0.50;;;;;;;;;;5095536;28;20440;-78
2022/06/06 13:25:33;;;;;;;0.70;0.50;;;;;;;;;;5098934;28;20468;-79
2022/06/06 13:28:09;;;;;;;0.70;0.50;;;;;;;;;;5098236;28;20536;-83
2022/06/06 13:30:40;;;;;;;0.70;0.50;;;;;;;;;;5115381;28;20413;-80
2022/06/06 13:33:26;;;;;;;0.70;0.50;;;;;;;;;;5113192;28;20445;-79
2022/06/06 13:36:01;;;;;;;0.70;0.50;;;;;;;;;;5095716;28;20638;-80
2022/06/06 13:38:45;;;;;;;0.70;0.50;;;;;;;;;;5114070;28;20442;-80
2022/06/06 13:41:17;;;;;;;0.70;0.50;;;;;;;;;;5114342;28;20440;-76
2022/06/06 13:43:55;;;;;;;0.70;0.60;;;;;;;;;;5115788;28;20445;-80
2022/06/06 13:46:32;;;;;;;0.70;0.50;;;;;;;;;;5114268;28;20503;-82
2022/06/06 13:49:10;;;;;;;0.70;0.50;;;;;;;;;;5082756;28;20456;-78
2022/06/06 13:51:49;;;;;;;0.70;0.60;;;;;;;;;;5114546;28;20464;-80
2022/06/06 13:54:29;;;;;;;0.70;0.50;;;;;;;;;;5114917;28;20498;-79
2022/06/06 13:57:00;;;;;;;0.70;0.50;;;;;;;;;;5098189;28;20488;-81
2022/06/06 14:00:01;;;;;;;0.70;0.50;;;;;;;;;;5094357;28;20794;-80
2022/06/06 14:02:45;;;;;;;0.70;0.50;;;;;;;;;;5035163;28;20470;-79
2022/06/06 14:05:23;;;;;;;0.70;0.50;;;;;;;;;;5034290;28;20867;-77
2022/06/06 14:07:57;;;;;;;0.70;0.50;;;;;;;;;;5085121;28;20456;-78
2022/06/06 14:10:37;;;;;;;0.70;0.50;;;;;;;;;;5114891;28;20453;-79
2022/06/06 14:13:07;;;;;;;0.70;0.50;;;;;;;;;;5115624;28;20441;-79
2022/06/06 14:15:39;;;;;;;0.70;0.50;;;;;;;;;;5103080;28;20426;-80
2022/06/06 14:18:11;;;;;;;0.70;0.50;;;;;;;;;;5098010;28;20876;-78
2022/06/06 14:20:42;;;;;;;0.70;0.60;;;;;;;;;;5098833;28;20455;-78
2022/06/06 14:23:35;;;;;;;0.73;0.60;;;;;;;;;;5116748;28;20437;-79
2022/06/06 14:26:04;;;;;;;0.70;0.50;;;;;;;;;;5093149;28;20997;-77
2022/06/06 14:28:34;;;;;;;0.70;0.60;;;;;;;;;;5104226;28;20954;-79
2022/06/06 14:31:02;;;;;;;0.70;0.50;;;;;;;;;;5080566;28;20497;-81
2022/06/06 14:33:32;;;;;;;0.70;0.50;;;;;;;;;;5110055;28;20453;-79
2022/06/06 14:36:15;;;;;;;0.70;0.50;;;;;;;;;;5116587;28;20456;-83
2022/06/06 14:38:42;;;;;;;0.70;0.50;;;;;;;;;;5096432;28;20532;-79
2022/06/06 14:41:15;;;;;;;0.70;0.60;;;;;;;;;;5095326;28;20896;-80
2022/06/06 14:43:50;;;;;;;0.70;0.50;;;;;;;;;;5116900;28;20414;-80
2022/06/06 14:46:17;;;;;;;0.70;0.50;;;;;;;;;;5101776;28;20918;-79
2022/06/06 14:48:47;;;;;;;0.70;0.50;;;;;;;;;;5116511;27;21028;-80
2022/06/06 14:51:15;;;;;;;0.70;0.50;;;;;;;;;;5102238;28;20469;-79
2022/06/06 14:53:48;;;;;;;0.70;0.50;;;;;;;;;;5115677;28;20434;-81
2022/06/06 14:56:28;;;;;;;0.70;0.50;;;;;;;;;;5097562;28;20441;-80
2022/06/06 14:58:57;;;;;;;0.70;0.50;;;;;;;;;;5094722;28;20646;-78
2022/06/06 15:01:25;;;;;;;0.70;0.50;;;;;;;;;;5076967;28;20484;-78
2022/06/06 15:03:54;;;;;;;0.70;0.50;;;;;;;;;;5077980;28;20442;-77
2022/06/06 15:06:23;;;;;;;0.80;0.60;;;;;;;;;;5100065;28;20480;-78
2022/06/06 15:09:05;;;;;;;0.70;0.50;;;;;;;;;;5081000;28;21012;-78
2022/06/06 15:11:34;;;;;;;0.70;0.60;;;;;;;;;;5098537;28;20415;-79
2022/06/06 15:14:05;;;;;;;0.70;0.57;;;;;;;;;;5116419;28;20486;-77
2022/06/06 15:16:32;;;;;;;0.80;0.60;;;;;;;;;;5114865;28;20465;-77
2022/06/06 15:19:03;;;;;;;0.70;0.60;;;;;;;;;;5110152;28;20566;-77
2022/06/06 15:21:32;;;;;;;0.70;0.60;;;;;;;;;;5098180;28;21002;-76
2022/06/06 15:24:00;;;;;;;0.70;0.60;;;;;;;;;;5094072;28;20779;-76
2022/06/06 15:26:52;;;;;;;0.70;0.60;;;;;;;;;;5102789;28;20821;-78
2022/06/06 15:29:23;;;;;;;0.70;0.60;;;;;;;;;;5113854;28;20410;-77
2022/06/06 15:31:58;;;;;;;0.70;0.67;;;;;;;;;;5103735;28;20453;-76
2022/06/06 15:34:30;;;;;;;0.70;0.60;;;;;;;;;;5094057;28;20414;-77
2022/06/06 15:37:01;;;;;;;0.80;0.67;;;;;;;;;;5093043;28;20476;-77
2022/06/06 15:39:34;;;;;;;0.70;0.60;;;;;;;;;;5110294;28;20426;-77
2022/06/06 15:42:10;;;;;;;0.77;0.70;;;;;;;;;;5099692;28;20819;-79
2022/06/06 15:44:41;;;;;;;0.70;0.60;;;;;;;;;;5115044;28;20441;-78
2022/06/06 15:47:12;;;;;;;0.70;0.60;;;;;;;;;;5099500;28;20438;-76
2022/06/06 15:49:53;;;;;;;0.70;0.60;;;;;;;;;;5101667;28;20442;-79
2022/06/06 15:52:28;;;;;;;0.70;0.60;;;;;;;;;;5094008;28;20472;-76
2022/06/06 15:54:58;;;;;;;0.70;0.60;;;;;;;;;;5093518;28;20460;-75
2022/06/06 15:57:29;;;;;;;0.70;0.60;;;;;;;;;;5092677;28;20496;-78